Time;durP1;ratioP1;P1;durP2;ratioP2;P2;SDS_P1;SDS_P2;PMS_P1;PMS_P2;Temp;Humidity;BMP_temperature;BMP_pressure;BME280_temperature;BME280_humidity;BME280_pressure;Samples;Min_cycle;Max_cycle;Signal;HPM_P1;HPM_P2
2021/04/16 00:07:11;;;;;;;26.7;19.5;;;;;;;1.54;100;98782.04;;;;
2021/04/16 00:17:09;;;;;;;29.9;20.1;;;;;;;1.5;100;98781.73;;;;
2021/04/16 00:27:06;;;;;;;25.9;20.2;;;;;;;1.5;100;98762.33;;;;
2021/04/16 00:37:04;;;;;;;24.7;19.7;;;;;;;1.42;100;98763.54;;;;
2021/04/16 00:47:02;;;;;;;29.3;18.1;;;;;;;1.41;100;98761.14;;;;
2021/04/16 00:57:00;;;;;;;20.3;18.1;;;;;;;1.43;100;98770.47;;;;
2021/04/16 01:06:58;;;;;;;22.2;19;;;;;;;1.4;100;98770.16;;;;
2021/04/16 01:16:56;;;;;;;23.8;19.8;;;;;;;1.36;100;98761.06;;;;
2021/04/16 01:26:54;;;;;;;25.6;17.7;;;;;;;1.35;100;98757.63;;;;
2021/04/16 01:36:51;;;;;;;23.2;16.2;;;;;;;1.32;100;98765.27;;;;
2021/04/16 01:46:58;;;;;;;22.7;16.9;;;;;;;1.34;100;98758.66;;;;
2021/04/16 01:56:47;;;;;;;23.3;16.9;;;;;;;1.34;100;98749.89;;;;
2021/04/16 02:06:45;;;;;;;19.7;15.9;;;;;;;1.26;100;98734.37;;;;
2021/04/16 02:16:43;;;;;;;19;16.7;;;;;;;1.14;100;98737.13;;;;
2021/04/16 02:26:41;;;;;;;22.8;18.3;;;;;;;1.07;100;98738.34;;;;
2021/04/16 02:36:39;;;;;;;24.6;18.6;;;;;;;1.03;100;98737.21;;;;
2021/04/16 02:46:36;;;;;;;24.7;18.3;;;;;;;1;100;98736.66;;;;
2021/04/16 02:56:34;;;;;;;23.7;16.6;;;;;;;0.84;100;98739.29;;;;
2021/04/16 03:06:32;;;;;;;22.7;16.2;;;;;;;0.79;100;98736.58;;;;
2021/04/16 03:16:30;;;;;;;19.6;17.5;;;;;;;0.71;100;98737.77;;;;
2021/04/16 03:26:28;;;;;;;20.3;16.6;;;;;;;0.75;100;98728.29;;;;
2021/04/16 03:36:26;;;;;;;23.1;17.5;;;;;;;0.82;100;98725.47;;;;
2021/04/16 03:46:24;;;;;;;23.3;17;;;;;;;0.78;100;98740.26;;;;
2021/04/16 03:56:21;;;;;;;18.1;15.2;;;;;;;0.74;100;98739.94;;;;
2021/04/16 04:06:19;;;;;;;18.4;14.2;;;;;;;0.55;100;98738.56;;;;
2021/04/16 04:16:18;;;;;;;17.4;13.8;;;;;;;0.55;100;98738.56;;;;
2021/04/16 04:26:15;;;;;;;18.9;13.4;;;;;;;0.56;100;98741.99;;;;
2021/04/16 04:36:13;;;;;;;17.1;13.3;;;;;;;0.54;100;98741.44;;;;
2021/04/16 04:46:11;;;;;;;18.2;10.8;;;;;;;0.58;100;98747.88;;;;
2021/04/16 04:56:08;;;;;;;18.5;12.9;;;;;;;0.65;100;98745.88;;;;
2021/04/16 05:06:06;;;;;;;16.6;13.6;;;;;;;0.76;100;98742.36;;;;
2021/04/16 05:16:04;;;;;;;18.5;14.1;;;;;;;0.81;100;98737.93;;;;
2021/04/16 05:26:02;;;;;;;14.4;11.4;;;;;;;0.8;100;98752.23;;;;
2021/04/16 05:36:00;;;;;;;15.4;12.2;;;;;;;0.83;100;98753.63;;;;
2021/04/16 05:45:58;;;;;;;14.2;11;;;;;;;0.79;100;98760.45;;;;
2021/04/16 05:55:56;;;;;;;13.1;10.9;;;;;;;0.72;100;98762.45;;;;
2021/04/16 06:05:56;;;;;;;15.7;13.5;;;;;;;0.76;100;98750.31;;;;
2021/04/16 06:15:52;;;;;;;18.3;13.9;;;;;;;0.86;100;98738.03;;;;
2021/04/16 06:25:49;;;;;;;13.9;11.3;;;;;;;1.1;100;98748.47;;;;
2021/04/16 06:35:47;;;;;;;15.3;10.7;;;;;;;1.14;100;98741.63;;;;
2021/04/16 06:45:45;;;;;;;15.7;9.1;;;;;;;1.1;100;98738.66;;;;
2021/04/16 06:55:43;;;;;;;17.5;13;;;;;;;1.2;100;98757.39;;;;
2021/04/16 07:05:40;;;;;;;14.7;12.8;;;;;;;1.31;100;98745.07;;;;
2021/04/16 07:15:38;;;;;;;14.1;12.6;;;;;;;1.38;100;98748.36;;;;
2021/04/16 07:25:36;;;;;;;20.7;14.1;;;;;;;1.33;100;98753.59;;;;
2021/04/16 07:35:34;;;;;;;16.8;13;;;;;;;1.32;100;98755.44;;;;
2021/04/16 07:45:32;;;;;;;15.3;11.2;;;;;;;1.44;100;98760.66;;;;
2021/04/16 07:55:30;;;;;;;13.8;11.2;;;;;;;1.53;100;98761.84;;;;
2021/04/16 08:05:32;;;;;;;15.2;11.6;;;;;;;1.62;100;98754.27;;;;
2021/04/16 08:15:27;;;;;;;17.3;13.3;;;;;;;1.76;100;98766.14;;;;
2021/04/16 08:25:25;;;;;;;19;12.8;;;;;;;1.62;100;98756.92;;;;
2021/04/16 08:35:24;;;;;;;15.7;13.2;;;;;;;1.67;100;98756.97;;;;
2021/04/16 08:45:23;;;;;;;18.4;12.8;;;;;;;1.75;100;98781.27;;;;
2021/04/16 08:55:30;;;;;;;21.8;16.3;;;;;;;1.69;100;98773.48;;;;
2021/04/16 09:05:14;;;;;;;19.1;16;;;;;;;1.7;100;98775.88;;;;
2021/04/16 09:15:12;;;;;;;21;16.2;;;;;;;1.76;100;98782.09;;;;
2021/04/16 09:25:10;;;;;;;21.6;17;;;;;;;1.78;100;98790.6;;;;
2021/04/16 09:35:08;;;;;;;27.1;20;;;;;;;1.82;100;98784.56;;;;
2021/04/16 09:45:06;;;;;;;20.6;16.9;;;;;;;1.8;100;98786.67;;;;
2021/04/16 09:55:04;;;;;;;21.7;18.5;;;;;;;2.01;100;98782.42;;;;
2021/04/16 10:05:02;;;;;;;25.6;16.9;;;;;;;2.09;100;98779.31;;;;
2021/04/16 10:14:59;;;;;;;20;15.2;;;;;;;2.28;100;98771.83;;;;
2021/04/16 12:44:30;;;;;;;17.3;12.1;;;;;;;2.78;100;98798.13;;;;
2021/04/16 12:54:28;;;;;;;14;12.5;;;;;;;2.78;100;98798.94;;;;
2021/04/16 13:04:26;;;;;;;15.9;10.8;;;;;;;2.86;100;98803.01;;;;
2021/04/16 13:14:24;;;;;;;15.2;11.9;;;;;;;2.93;100;98799.09;;;;
2021/04/16 13:24:22;;;;;;;15.7;14;;;;;;;3.05;100;98793.62;;;;
2021/04/16 13:34:20;;;;;;;24;17.3;;;;;;;3.14;100;98792.08;;;;
2021/04/16 13:44:19;;;;;;;14.4;12.3;;;;;;;3.14;100;98796.59;;;;
2021/04/16 13:54:20;;;;;;;14.2;9.8;;;;;;;3.17;100;98801.41;;;;
2021/04/16 14:04:14;;;;;;;23.7;19.5;;;;;;;3.06;100;98800.53;;;;
2021/04/16 14:14:13;;;;;;;23.5;18;;;;;;;3.11;100;98805.09;;;;
2021/04/16 14:24:10;;;;;;;22.2;17.6;;;;;;;3.06;100;98813.84;;;;
2021/04/16 14:34:08;;;;;;;23.1;16.6;;;;;;;3.14;100;98792.08;;;;
2021/04/16 14:44:06;;;;;;;22.1;18.7;;;;;;;3.13;100;98805.64;;;;
2021/04/16 14:54:05;;;;;;;18.5;16;;;;;;;3.06;100;98816.5;;;;
2021/04/16 15:04:03;;;;;;;16.5;13.4;;;;;;;2.94;100;98814.02;;;;
2021/04/16 15:14:01;;;;;;;19.8;16.5;;;;;;;3;100;98818.33;;;;
2021/04/16 15:23:59;;;;;;;18.4;16.4;;;;;;;2.99;100;98831.88;;;;
2021/04/16 15:53:53;;;;;;;24.5;19.9;;;;;;;2.94;100;98831.84;;;;
2021/04/16 16:03:51;;;;;;;27.4;18.5;;;;;;;2.97;100;98832.14;;;;
2021/04/16 16:13:49;;;;;;;30.4;23.2;;;;;;;2.98;100;98832.95;;;;
2021/04/16 16:23:47;;;;;;;27.1;22.1;;;;;;;2.86;100;98822.45;;;;
2021/04/16 16:33:45;;;;;;;33.6;22.4;;;;;;;2.87;100;98834.72;;;;
2021/04/16 16:43:43;;;;;;;26.6;17.7;;;;;;;2.88;100;98840.84;;;;
2021/04/16 16:53:42;;;;;;;29.5;22.3;;;;;;;2.82;100;98842.63;;;;
2021/04/16 17:03:40;;;;;;;23.2;19.3;;;;;;;2.82;100;98831.98;;;;
2021/04/16 17:13:38;;;;;;;30.6;20.9;;;;;;;2.77;100;98845.26;;;;
2021/04/16 17:23:36;;;;;;;29;22.5;;;;;;;2.78;100;98852.17;;;;
2021/04/16 17:33:34;;;;;;;35.2;21.8;;;;;;;2.73;100;98852.13;;;;
2021/04/16 17:43:32;;;;;;;24.7;20.6;;;;;;;2.79;100;98858.3;;;;
2021/04/16 17:53:30;;;;;;;27.6;19.9;;;;;;;2.66;100;98875.47;;;;
2021/04/16 18:03:28;;;;;;;30.6;20.6;;;;;;;2.74;100;98880.33;;;;
2021/04/16 18:13:26;;;;;;;26.6;21;;;;;;;2.67;100;98882.41;;;;
2021/04/16 18:23:26;;;;;;;24.9;19;;;;;;;2.57;100;98887.58;;;;
2021/04/16 18:33:22;;;;;;;25.6;19.5;;;;;;;2.61;100;98893.21;;;;
2021/04/16 18:43:20;;;;;;;23.7;20;;;;;;;2.59;100;98890.81;;;;
2021/04/16 18:53:28;;;;;;;29.1;22.6;;;;;;;2.68;100;98904.47;;;;
2021/04/16 19:03:16;;;;;;;23.8;21.3;;;;;;;2.6;100;98907.59;;;;
2021/04/16 19:13:14;;;;;;;26;19.9;;;;;;;2.62;100;98900.15;;;;
2021/04/16 19:23:12;;;;;;;32.8;24.6;;;;;;;2.66;100;98907.39;;;;
2021/04/16 19:33:10;;;;;;;31;22.6;;;;;;;2.66;100;98915.38;;;;
2021/04/16 19:43:08;;;;;;;25.4;19.3;;;;;;;2.67;100;98913.53;;;;
2021/04/16 20:04:18;;;;;;;27.5;20.2;;;;;;;2.56;100;98901.95;;;;
2021/04/16 20:23:00;;;;;;;25.9;17.4;;;;;;;2.56;100;98896.64;;;;
2021/04/16 20:32:59;;;;;;;19.2;15.9;;;;;;;2.53;100;98892.59;;;;
2021/04/16 20:42:57;;;;;;;21.8;15.1;;;;;;;2.58;100;98905.16;;;;
2021/04/16 20:52:55;;;;;;;27.2;13.9;;;;;;;2.49;100;98896.02;;;;
2021/04/16 21:03:03;;;;;;;22.9;14.7;;;;;;;2.36;100;98896.39;;;;
2021/04/16 21:12:51;;;;;;;22.1;15;;;;;;;2.36;100;98899.05;;;;
2021/04/16 21:22:49;;;;;;;21.5;16.5;;;;;;;2.39;100;98901.21;;;;
2021/04/16 21:32:47;;;;;;;21.5;16;;;;;;;2.37;100;98898.78;;;;
2021/04/16 21:42:45;;;;;;;22.3;17;;;;;;;2.36;100;98891.07;;;;
2021/04/16 21:52:43;;;;;;;20.8;16.1;;;;;;;2.41;100;98902.56;;;;
2021/04/16 22:02:41;;;;;;;23.8;16.2;;;;;;;2.4;100;98895.63;;;;
2021/04/16 22:12:41;;;;;;;21.3;17;;;;;;;2.4;100;98898.29;;;;
2021/04/16 22:22:37;;;;;;;21.9;18.2;;;;;;;2.4;100;98897.48;;;;
2021/04/16 22:32:35;;;;;;;23.5;17.1;;;;;;;2.38;100;98900.41;;;;
2021/04/16 22:42:33;;;;;;;24.8;16.4;;;;;;;2.44;100;98890.63;;;;
2021/04/16 22:52:32;;;;;;;20.8;14.8;;;;;;;2.41;100;98888.45;;;;
2021/04/16 23:02:35;;;;;;;19.6;14.3;;;;;;;2.41;100;98886.61;;;;
2021/04/16 23:12:28;;;;;;;17.3;14.5;;;;;;;2.45;100;98874.42;;;;
2021/04/16 23:22:27;;;;;;;21;15.8;;;;;;;2.46;100;98869.91;;;;
2021/04/16 23:32:35;;;;;;;16.4;14.4;;;;;;;2.38;100;98867.68;;;;
2021/04/16 23:42:23;;;;;;;28.4;18.1;;;;;;;2.36;100;98853.84;;;;
2021/04/16 23:52:22;;;;;;;17.1;12.8;;;;;;;2.48;100;98843.86;;;;
